createdAt,value
2018-07-23T00:00:21.881Z,2.50
2018-07-23T00:02:51.387Z,3.10
2018-07-23T00:05:20.890Z,2.77
2018-07-23T00:07:50.385Z,2.30
2018-07-23T00:10:19.868Z,2.53
2018-07-23T00:12:49.370Z,2.77
2018-07-23T00:15:18.213Z,2.93
2018-07-23T00:17:47.696Z,4.03
2018-07-23T00:20:17.165Z,6.60
2018-07-23T00:22:46.570Z,2.40
2018-07-23T00:25:16.011Z,3.37
2018-07-23T00:27:45.503Z,4.37
2018-07-23T00:30:14.941Z,6.30
2018-07-23T00:32:44.360Z,5.83
2018-07-23T00:35:13.824Z,5.67
2018-07-23T00:37:43.307Z,5.50
2018-07-23T00:40:15.623Z,5.77
2018-07-23T00:42:45.091Z,5.73
2018-07-23T00:45:14.567Z,6.07
2018-07-23T00:47:43.948Z,8.63
2018-07-23T00:50:13.402Z,6.03
2018-07-23T00:52:42.829Z,5.90
2018-07-23T00:55:12.323Z,6.23
2018-07-23T00:57:41.737Z,6.23
2018-07-23T01:00:11.240Z,5.73
2018-07-23T01:02:40.693Z,6.47
2018-07-23T01:05:10.130Z,6.00
2018-07-23T01:07:39.003Z,6.20
2018-07-23T01:10:08.564Z,7.57
2018-07-23T01:12:38.066Z,5.73
2018-07-23T01:15:07.628Z,6.00
2018-07-23T01:17:37.105Z,6.90
2018-07-23T01:20:06.539Z,6.93
2018-07-23T01:22:36.004Z,5.97
2018-07-23T01:25:05.496Z,7.87
2018-07-23T01:27:34.884Z,7.50
2018-07-23T01:30:04.371Z,6.70
2018-07-23T01:32:33.837Z,6.53
2018-07-23T01:35:03.231Z,5.93
2018-07-23T01:37:32.656Z,5.90
2018-07-23T01:40:02.146Z,6.53
2018-07-23T01:42:31.610Z,6.90
2018-07-23T01:45:01.247Z,7.97
2018-07-23T01:47:30.776Z,5.20
2018-07-23T01:50:00.152Z,5.33
2018-07-23T01:52:29.600Z,4.50
2018-07-23T01:54:59.041Z,4.83
2018-07-23T01:57:28.490Z,3.83
2018-07-23T01:59:57.900Z,3.83
2018-07-23T02:02:27.340Z,4.47
2018-07-23T02:04:56.815Z,3.60
2018-07-23T02:07:26.255Z,3.43
2018-07-23T02:09:55.732Z,3.33
2018-07-23T02:12:25.169Z,2.83
2018-07-23T02:14:54.633Z,3.63
2018-07-23T02:17:24.117Z,4.67
2018-07-23T02:19:53.554Z,4.90
2018-07-23T02:22:22.422Z,4.97
2018-07-23T02:24:51.836Z,3.40
2018-07-23T02:27:21.416Z,3.57
2018-07-23T02:29:50.860Z,3.20
2018-07-23T02:32:20.400Z,3.87
2018-07-23T02:34:49.845Z,4.93
2018-07-23T02:37:19.269Z,4.60
2018-07-23T02:39:48.712Z,3.30
2018-07-23T02:42:18.207Z,3.40
2018-07-23T02:44:47.664Z,2.57
2018-07-23T02:47:17.110Z,2.87
2018-07-23T02:49:46.575Z,4.83
2018-07-23T02:52:16.069Z,2.43
2018-07-23T02:54:45.539Z,3.40
2018-07-23T02:57:14.938Z,2.10
2018-07-23T02:59:44.397Z,3.27
2018-07-23T03:02:13.885Z,4.87
2018-07-23T03:04:43.340Z,2.57
2018-07-23T03:07:12.841Z,2.47
2018-07-23T03:09:42.306Z,2.90
2018-07-23T03:12:11.742Z,2.67
2018-07-23T03:14:41.176Z,2.20
2018-07-23T03:17:10.662Z,4.53
2018-07-23T03:19:40.119Z,3.60
2018-07-23T03:22:09.599Z,3.47
2018-07-23T03:24:39.123Z,3.00
2018-07-23T03:27:08.588Z,3.47
2018-07-23T03:29:38.057Z,2.67
2018-07-23T03:32:07.599Z,2.27
2018-07-23T03:34:37.232Z,3.13
2018-07-23T03:37:06.656Z,4.93
2018-07-23T03:39:39.876Z,3.47
2018-07-23T03:42:09.860Z,2.63
2018-07-23T03:44:39.360Z,3.13
2018-07-23T03:47:09.312Z,2.30
2018-07-23T03:49:38.740Z,3.30
2018-07-23T03:52:08.226Z,2.17
2018-07-23T03:54:37.635Z,2.33
2018-07-23T03:57:07.076Z,4.90
2018-07-23T03:59:36.556Z,2.17
2018-07-23T04:02:05.949Z,4.07
2018-07-23T04:04:34.846Z,4.00
2018-07-23T04:07:04.327Z,2.53
2018-07-23T04:09:33.822Z,2.30
2018-07-23T04:12:03.257Z,1.90
2018-07-23T04:14:35.113Z,1.93
2018-07-23T04:17:04.552Z,2.83
2018-07-23T04:19:34.023Z,2.70
2018-07-23T04:22:02.945Z,2.47
2018-07-23T04:24:32.442Z,2.47
2018-07-23T04:27:01.879Z,2.10
2018-07-23T04:29:31.392Z,1.90
2018-07-23T04:32:00.869Z,2.40
2018-07-23T04:34:30.361Z,2.87
2018-07-23T04:36:59.858Z,1.83
2018-07-23T04:39:29.371Z,2.33
2018-07-23T04:41:58.756Z,2.57
2018-07-23T04:44:28.228Z,2.47
2018-07-23T04:46:57.730Z,2.70
2018-07-23T04:49:27.176Z,3.07
2018-07-23T04:51:56.669Z,2.47
2018-07-23T04:54:26.090Z,2.90
2018-07-23T04:56:55.561Z,1.93
2018-07-23T04:59:25.075Z,3.20
2018-07-23T05:01:54.513Z,6.07
2018-07-23T05:04:23.963Z,3.30
2018-07-23T05:06:53.410Z,1.90
2018-07-23T05:09:22.851Z,3.13
2018-07-23T05:11:52.360Z,5.03
2018-07-23T05:14:22.236Z,3.77
2018-07-23T05:16:51.657Z,3.03
2018-07-23T05:19:21.115Z,3.40
2018-07-23T05:21:50.545Z,2.90
2018-07-23T05:24:19.979Z,2.53
2018-07-23T05:26:49.414Z,2.30
2018-07-23T05:29:19.015Z,2.30
2018-07-23T05:31:48.484Z,3.50
2018-07-23T05:34:17.990Z,2.67
2018-07-23T05:36:47.594Z,3.30
2018-07-23T05:39:16.999Z,2.40
2018-07-23T05:41:46.409Z,2.70
2018-07-23T05:44:15.861Z,2.13
2018-07-23T05:46:45.261Z,1.80
2018-07-23T05:49:14.733Z,2.10
2018-07-23T05:51:44.232Z,2.67
2018-07-23T05:54:13.615Z,2.60
2018-07-23T05:56:43.068Z,2.30
2018-07-23T05:59:12.499Z,3.10
2018-07-23T06:01:41.956Z,3.47
2018-07-23T06:04:11.417Z,3.00
2018-07-23T06:06:40.927Z,2.23
2018-07-23T06:09:10.527Z,3.45
2018-07-23T06:11:39.995Z,2.67
2018-07-23T06:14:09.502Z,1.60
2018-07-23T06:16:38.980Z,3.17
2018-07-23T06:19:08.401Z,2.10
2018-07-23T06:21:37.964Z,2.47
2018-07-23T06:24:07.738Z,2.00
2018-07-23T06:26:37.177Z,3.13
2018-07-23T06:29:06.620Z,2.60
2018-07-23T06:31:36.069Z,2.57
2018-07-23T06:34:05.715Z,2.60
2018-07-23T06:36:35.278Z,2.40
2018-07-23T06:39:07.396Z,2.97
2018-07-23T06:41:37.035Z,3.13
2018-07-23T06:44:06.859Z,2.40
2018-07-23T06:46:36.433Z,2.63
2018-07-23T06:49:06.403Z,2.47
2018-07-23T06:51:35.978Z,2.60
2018-07-23T06:54:05.805Z,2.93
2018-07-23T06:56:35.334Z,3.50
2018-07-23T06:59:04.817Z,2.40
2018-07-23T07:01:34.414Z,3.23
2018-07-23T07:04:04.087Z,7.93
2018-07-23T07:06:33.581Z,3.70
2018-07-23T07:09:03.183Z,5.60
2018-07-23T07:11:32.724Z,2.87
2018-07-23T07:14:02.214Z,4.80
2018-07-23T07:16:31.724Z,5.00
2018-07-23T07:19:01.299Z,4.95
2018-07-23T07:21:30.827Z,3.47
2018-07-23T07:24:00.400Z,3.10
2018-07-23T07:26:29.906Z,2.15
2018-07-23T07:28:59.450Z,3.12
2018-07-23T07:31:28.883Z,3.00
2018-07-23T07:33:58.463Z,3.00
2018-07-23T07:36:28.037Z,2.17
2018-07-23T07:38:57.890Z,1.80
2018-07-23T07:41:27.462Z,1.70
2018-07-23T07:43:56.433Z,2.67
2018-07-23T07:46:26.037Z,2.33
2018-07-23T07:48:55.576Z,2.00
2018-07-23T07:51:25.174Z,1.80
2018-07-23T07:53:54.691Z,3.90
2018-07-23T07:56:24.234Z,2.23
2018-07-23T07:58:53.744Z,2.90
2018-07-23T08:01:23.333Z,2.33
2018-07-23T08:03:52.833Z,1.60
2018-07-23T08:06:22.344Z,2.33
2018-07-23T08:08:51.836Z,1.60
2018-07-23T08:11:28.722Z,2.23
2018-07-23T08:14:09.466Z,2.17
2018-07-23T08:16:39.302Z,2.23
2018-07-23T08:19:08.749Z,2.73
2018-07-23T08:21:38.220Z,1.60
2018-07-23T08:24:07.786Z,3.70
2018-07-23T08:26:37.229Z,2.00
2018-07-23T08:29:06.777Z,2.73
2018-07-23T08:31:36.430Z,2.60
2018-07-23T08:34:05.899Z,4.13
2018-07-23T08:36:35.491Z,2.37
2018-07-23T08:39:07.373Z,2.20
2018-07-23T08:41:36.778Z,2.53
2018-07-23T08:44:06.335Z,1.90
2018-07-23T08:46:35.824Z,3.00
2018-07-23T08:49:05.644Z,2.97
2018-07-23T08:51:35.039Z,1.60
2018-07-23T08:54:04.540Z,2.00
2018-07-23T08:56:34.004Z,2.00
2018-07-23T08:59:04.472Z,1.67
2018-07-23T09:01:34.823Z,1.40
2018-07-23T09:04:05.309Z,2.10
2018-07-23T09:06:34.845Z,2.30
2018-07-23T09:09:07.589Z,2.33
2018-07-23T09:11:37.062Z,2.10
2018-07-23T09:14:06.948Z,2.00
2018-07-23T09:16:36.536Z,1.70
2018-07-23T09:19:06.421Z,4.53
2018-07-23T09:21:35.966Z,5.97
2018-07-23T09:24:05.547Z,3.57
2018-07-23T09:26:35.722Z,3.00
2018-07-23T09:29:05.418Z,2.37
2018-07-23T09:31:34.880Z,1.97
2018-07-23T09:34:04.394Z,2.10
2018-07-23T09:36:33.937Z,2.77
2018-07-23T09:39:03.652Z,2.93
2018-07-23T09:41:33.256Z,2.83
2018-07-23T09:44:02.791Z,3.30
2018-07-23T09:46:32.278Z,3.37
2018-07-23T09:49:01.870Z,2.47
2018-07-23T09:51:31.267Z,2.07
2018-07-23T09:54:00.774Z,2.20
2018-07-23T09:56:30.351Z,2.33
2018-07-23T09:58:59.951Z,3.50
2018-07-23T10:01:29.508Z,1.53
2018-07-23T10:03:59.025Z,2.43
2018-07-23T10:06:28.495Z,3.10
2018-07-23T10:08:58.073Z,3.30
2018-07-23T10:11:27.687Z,1.70
2018-07-23T10:13:57.287Z,4.47
2018-07-23T10:16:26.762Z,1.67
2018-07-23T10:18:56.261Z,2.90
2018-07-23T10:21:25.713Z,2.00
2018-07-23T10:23:54.676Z,2.30
2018-07-23T10:26:24.141Z,3.10
2018-07-23T10:28:53.843Z,3.97
2018-07-23T10:31:23.411Z,2.50
2018-07-23T10:33:52.988Z,2.20
2018-07-23T10:36:22.613Z,1.70
2018-07-23T10:38:52.126Z,4.13
2018-07-23T10:41:21.694Z,1.80
2018-07-23T10:43:51.201Z,1.90
2018-07-23T10:46:20.750Z,1.97
2018-07-23T10:48:50.598Z,1.90
2018-07-23T10:51:20.091Z,1.83
2018-07-23T10:53:49.667Z,1.67
2018-07-23T10:56:19.250Z,6.43
2018-07-23T10:58:48.839Z,2.00
2018-07-23T11:01:18.446Z,1.92
2018-07-23T11:03:48.140Z,1.60
2018-07-23T11:06:17.605Z,2.10
2018-07-23T11:08:47.035Z,2.15
2018-07-23T11:11:16.623Z,2.00
2018-07-23T11:13:46.161Z,2.87
2018-07-23T11:16:15.711Z,2.65
2018-07-23T11:18:45.187Z,2.45
2018-07-23T11:21:14.942Z,1.82
2018-07-23T11:23:44.350Z,5.40
2018-07-23T11:26:13.829Z,2.47
2018-07-23T11:28:43.293Z,3.20
2018-07-23T11:31:12.746Z,2.10
2018-07-23T11:33:42.270Z,3.15
2018-07-23T11:36:11.721Z,2.00
2018-07-23T11:38:41.177Z,2.02
2018-07-23T11:41:10.648Z,2.40
2018-07-23T11:43:40.192Z,3.50
2018-07-23T11:46:24.420Z,1.98
2018-07-23T11:48:39.413Z,2.72
2018-07-23T11:51:08.933Z,2.85
2018-07-23T11:53:38.950Z,2.92
2018-07-23T11:56:08.481Z,4.17
2018-07-23T11:58:38.269Z,1.90
2018-07-23T12:01:07.775Z,2.33
2018-07-23T12:03:37.250Z,2.85
2018-07-23T12:06:07.829Z,1.98
2018-07-23T12:08:38.322Z,1.80
2018-07-23T12:11:08.086Z,2.45
2018-07-23T12:13:37.514Z,1.65
2018-07-23T12:16:07.053Z,1.97
2018-07-23T12:18:36.465Z,2.37
2018-07-23T12:21:05.917Z,1.60
2018-07-23T12:23:35.462Z,1.80
2018-07-23T12:26:04.972Z,2.17
2018-07-23T12:28:34.355Z,2.80
2018-07-23T12:31:03.900Z,1.65
2018-07-23T12:33:33.370Z,2.15
2018-07-23T12:36:02.871Z,2.08
2018-07-23T12:38:32.354Z,2.87
2018-07-23T12:41:01.877Z,3.33
2018-07-23T12:43:31.284Z,2.55
2018-07-23T12:46:00.809Z,2.93
2018-07-23T12:48:30.278Z,3.85
2018-07-23T12:50:59.891Z,3.10
2018-07-23T12:53:29.386Z,2.83
2018-07-23T12:55:58.856Z,2.15
2018-07-23T12:58:28.269Z,1.95
2018-07-23T13:00:57.774Z,3.75
2018-07-23T13:03:27.417Z,1.98
2018-07-23T13:05:56.888Z,3.72
2018-07-23T13:08:26.433Z,2.77
2018-07-23T13:10:55.932Z,1.70
2018-07-23T13:13:25.322Z,1.57
2018-07-23T13:15:54.685Z,4.65
2018-07-23T13:18:24.168Z,1.60
2018-07-23T13:20:54.606Z,1.80
2018-07-23T13:23:24.109Z,1.80
2018-07-23T13:25:53.533Z,1.75
2018-07-23T13:28:23.001Z,1.40
2018-07-23T13:30:52.444Z,3.20
2018-07-23T13:33:21.892Z,2.55
2018-07-23T13:35:51.360Z,1.80
2018-07-23T13:38:20.283Z,2.15
2018-07-23T13:40:49.747Z,1.67
2018-07-23T13:43:19.239Z,4.67
2018-07-23T13:45:48.756Z,4.22
2018-07-23T13:48:18.478Z,5.90
2018-07-23T13:50:48.035Z,2.05
2018-07-23T13:53:17.388Z,2.15
2018-07-23T13:55:46.868Z,1.80
2018-07-23T13:58:16.358Z,4.12
2018-07-23T14:00:45.917Z,6.15
2018-07-23T14:03:15.358Z,3.58
2018-07-23T14:05:44.798Z,4.28
2018-07-23T14:08:14.203Z,2.27
2018-07-23T14:10:43.655Z,2.05
2018-07-23T14:13:13.136Z,2.05
2018-07-23T14:15:42.593Z,1.77
2018-07-23T14:18:12.066Z,2.27
2018-07-23T14:20:41.524Z,3.22
2018-07-23T14:23:10.980Z,2.50
2018-07-23T14:25:40.472Z,4.42
2018-07-23T14:28:09.942Z,1.98
2018-07-23T14:30:39.408Z,2.72
2018-07-23T14:33:08.796Z,2.37
2018-07-23T14:35:38.494Z,1.87
2018-07-23T14:38:08.564Z,1.92
2018-07-23T14:40:37.988Z,3.50
2018-07-23T14:43:07.486Z,3.90
2018-07-23T14:45:37.003Z,3.67
2018-07-23T14:48:06.511Z,2.05
2018-07-23T14:50:35.993Z,2.20
2018-07-23T14:53:05.518Z,1.92
2018-07-23T14:55:34.975Z,1.77
2018-07-23T14:58:04.507Z,2.62
2018-07-23T15:00:34.260Z,3.15
2018-07-23T15:03:03.788Z,3.22
2018-07-23T15:05:33.312Z,3.42
2018-07-23T15:08:02.836Z,5.03
2018-07-23T15:10:32.268Z,2.72
2018-07-23T15:13:01.293Z,2.20
2018-07-23T15:15:30.840Z,7.83
2018-07-23T15:18:00.309Z,7.22
2018-07-23T15:20:29.790Z,3.60
2018-07-23T15:22:58.800Z,6.37
2018-07-23T15:25:28.499Z,5.33
2018-07-23T15:27:59.083Z,2.62
2018-07-23T15:30:28.676Z,3.25
2018-07-23T15:32:58.219Z,2.77
2018-07-23T15:35:27.780Z,3.12
2018-07-23T15:37:57.213Z,3.50
2018-07-23T15:40:26.766Z,3.70
2018-07-23T15:42:56.182Z,3.50
2018-07-23T15:45:25.760Z,3.65
2018-07-23T15:47:55.168Z,2.17
2018-07-23T15:50:24.703Z,2.30
2018-07-23T15:52:54.148Z,3.52
2018-07-23T15:55:23.862Z,2.60
2018-07-23T15:57:53.306Z,2.30
2018-07-23T16:00:22.759Z,4.20
2018-07-23T16:02:52.267Z,2.47
2018-07-23T16:05:21.774Z,3.30
2018-07-23T16:07:51.287Z,2.90
2018-07-23T16:10:20.797Z,2.45
2018-07-23T16:12:50.360Z,5.33
2018-07-23T16:15:19.843Z,8.83
2018-07-23T16:17:49.362Z,2.98
2018-07-23T16:20:18.857Z,3.05
2018-07-23T16:22:48.426Z,3.85
2018-07-23T16:25:18.021Z,3.37
2018-07-23T16:27:47.677Z,4.62
2018-07-23T16:30:17.221Z,3.02
2018-07-23T16:32:46.682Z,2.33
2018-07-23T16:35:16.134Z,2.27
2018-07-23T16:37:45.629Z,1.92
2018-07-23T16:40:15.094Z,2.35
2018-07-23T16:42:43.980Z,2.58
2018-07-23T16:45:13.444Z,4.25
2018-07-23T16:47:42.907Z,2.45
2018-07-23T16:50:12.392Z,2.42
2018-07-23T16:52:41.919Z,2.22
2018-07-23T16:55:11.373Z,2.08
2018-07-23T16:57:40.757Z,1.98
2018-07-23T17:00:10.678Z,2.27
2018-07-23T17:02:40.100Z,2.50
2018-07-23T17:05:09.497Z,3.27
2018-07-23T17:07:38.931Z,1.98
2018-07-23T17:10:08.510Z,2.00
2018-07-23T17:12:37.964Z,2.83
2018-07-23T17:15:07.835Z,2.20
2018-07-23T17:17:37.312Z,2.60
2018-07-23T17:20:07.403Z,2.72
2018-07-23T17:22:36.961Z,2.62
2018-07-23T17:25:06.555Z,2.50
2018-07-23T17:27:36.006Z,2.58
2018-07-23T17:30:05.731Z,2.50
2018-07-23T17:32:35.219Z,1.60
2018-07-23T17:35:04.930Z,3.00
2018-07-23T17:37:34.360Z,2.92
2018-07-23T17:40:04.072Z,1.90
2018-07-23T17:42:33.558Z,2.25
2018-07-23T17:45:03.167Z,3.37
2018-07-23T17:47:32.651Z,1.70
2018-07-23T17:50:02.239Z,2.17
2018-07-23T17:52:31.810Z,3.05
2018-07-23T17:55:01.450Z,6.75
2018-07-23T17:57:31.172Z,3.47
2018-07-23T18:00:00.621Z,2.37
2018-07-23T18:02:30.386Z,2.85
2018-07-23T18:05:00.039Z,1.95
2018-07-23T18:07:29.506Z,3.08
2018-07-23T18:09:59.228Z,2.30
2018-07-23T18:12:28.672Z,4.05
2018-07-23T18:14:58.288Z,2.90
2018-07-23T18:17:28.142Z,3.30
2018-07-23T18:19:58.070Z,2.35
2018-07-23T18:22:27.896Z,3.25
2018-07-23T18:24:57.580Z,3.67
2018-07-23T18:27:27.684Z,5.60
2018-07-23T18:29:57.766Z,4.47
2018-07-23T18:32:27.872Z,2.47
2018-07-23T18:34:58.398Z,3.70
2018-07-23T18:37:28.430Z,2.92
2018-07-23T18:39:58.543Z,2.70
2018-07-23T18:42:28.652Z,5.45
2018-07-23T18:44:59.006Z,4.62
2018-07-23T18:47:29.335Z,2.75
2018-07-23T18:50:00.886Z,5.58
2018-07-23T18:52:31.870Z,3.58
2018-07-23T18:55:02.849Z,4.33
2018-07-23T18:57:33.269Z,3.90
2018-07-23T19:00:03.635Z,4.47
2018-07-23T19:02:33.947Z,6.47
2018-07-23T19:05:04.257Z,3.15
2018-07-23T19:07:34.456Z,4.22
2018-07-23T19:10:05.085Z,3.83
2018-07-23T19:12:35.281Z,3.90
2018-07-23T19:15:06.332Z,3.27
2018-07-23T19:17:36.745Z,6.20
2018-07-23T19:20:07.207Z,7.20
2018-07-23T19:22:37.499Z,7.27
2018-07-23T19:25:07.967Z,6.30
2018-07-23T19:27:38.205Z,8.73
2018-07-23T19:30:08.474Z,5.87
2018-07-23T19:32:38.645Z,9.20
2018-07-23T19:35:08.999Z,7.90
2018-07-23T19:37:39.215Z,8.07
2018-07-23T19:40:09.426Z,8.87
2018-07-23T19:42:39.757Z,6.13
2018-07-23T19:45:10.063Z,6.73
2018-07-23T19:47:40.405Z,6.57
2018-07-23T19:50:10.628Z,6.20
2018-07-23T19:52:40.926Z,4.43
2018-07-23T19:55:11.213Z,5.47
2018-07-23T19:57:41.462Z,6.70
2018-07-23T20:00:11.704Z,7.47
2018-07-23T20:02:42.739Z,7.63
2018-07-23T20:05:13.016Z,8.20
2018-07-23T20:07:43.239Z,5.20
2018-07-23T20:10:13.481Z,6.23
2018-07-23T20:12:43.692Z,8.03
2018-07-23T20:15:13.946Z,4.93
2018-07-23T20:17:44.416Z,5.57
2018-07-23T20:20:14.660Z,5.97
2018-07-23T20:22:44.846Z,5.83
2018-07-23T20:25:15.209Z,10.77
2018-07-23T20:27:45.442Z,6.07
2018-07-23T20:30:15.737Z,7.33
2018-07-23T20:32:45.977Z,6.13
2018-07-23T20:35:16.378Z,6.60
2018-07-23T20:37:46.607Z,9.70
2018-07-23T20:40:16.903Z,5.70
2018-07-23T20:42:47.033Z,9.73
2018-07-23T20:45:17.365Z,6.67
2018-07-23T20:47:47.639Z,6.00
2018-07-23T20:50:17.976Z,6.77
2018-07-23T20:52:48.585Z,10.87
2018-07-23T20:55:18.801Z,8.87
2018-07-23T20:57:49.044Z,5.83
2018-07-23T21:00:19.607Z,5.63
2018-07-23T21:02:49.890Z,6.50
2018-07-23T21:05:20.225Z,4.53
2018-07-23T21:07:50.496Z,6.13
2018-07-23T21:10:20.694Z,7.77
2018-07-23T21:12:50.711Z,5.67
2018-07-23T21:15:20.913Z,5.90
2018-07-23T21:17:51.112Z,5.63
2018-07-23T21:20:21.132Z,7.00
2018-07-23T21:22:50.757Z,7.97
2018-07-23T21:25:20.510Z,5.07
2018-07-23T21:27:50.240Z,4.80
2018-07-23T21:30:19.806Z,5.67
2018-07-23T21:32:49.322Z,4.97
2018-07-23T21:35:18.938Z,5.33
2018-07-23T21:37:48.403Z,4.70
2018-07-23T21:40:17.938Z,4.83
2018-07-23T21:42:47.371Z,6.00
2018-07-23T21:45:16.851Z,4.57
2018-07-23T21:47:46.350Z,4.70
2018-07-23T21:50:15.798Z,4.20
2018-07-23T21:52:45.244Z,6.60
2018-07-23T21:55:14.755Z,4.37
2018-07-23T21:57:44.158Z,4.73
2018-07-23T22:00:15.522Z,4.63
2018-07-23T22:02:44.990Z,7.63
2018-07-23T22:05:14.444Z,4.73
2018-07-23T22:07:43.832Z,8.40
2018-07-23T22:10:13.304Z,5.07
2018-07-23T22:12:42.689Z,4.90
2018-07-23T22:15:12.449Z,6.10
2018-07-23T22:17:41.825Z,5.57
2018-07-23T22:20:11.277Z,6.27
2018-07-23T22:22:40.694Z,6.03
2018-07-23T22:25:10.136Z,7.13
2018-07-23T22:27:39.646Z,5.77
2018-07-23T22:30:09.300Z,4.80
2018-07-23T22:32:38.696Z,4.13
2018-07-23T22:35:08.189Z,4.23
2018-07-23T22:37:37.726Z,5.13
2018-07-23T22:40:07.189Z,4.33
2018-07-23T22:42:36.694Z,5.07
2018-07-23T22:45:06.802Z,4.23
2018-07-23T22:47:36.285Z,4.20
2018-07-23T22:50:06.942Z,6.97
2018-07-23T22:52:36.386Z,5.30
2018-07-23T22:55:05.810Z,6.33
2018-07-23T22:57:35.314Z,4.57
2018-07-23T23:00:04.927Z,5.20
2018-07-23T23:02:34.358Z,5.13
2018-07-23T23:05:03.884Z,6.60
2018-07-23T23:07:33.322Z,6.07
2018-07-23T23:10:02.786Z,4.57
2018-07-23T23:12:32.279Z,4.20
2018-07-23T23:15:01.847Z,4.20
2018-07-23T23:17:31.278Z,4.70
2018-07-23T23:20:00.680Z,5.17
2018-07-23T23:22:30.113Z,5.67
2018-07-23T23:24:59.807Z,4.80
2018-07-23T23:27:29.277Z,4.00
2018-07-23T23:29:58.850Z,5.37
2018-07-23T23:32:28.391Z,4.37
2018-07-23T23:34:57.878Z,6.43
2018-07-23T23:37:27.376Z,6.67
2018-07-23T23:39:56.933Z,7.33
2018-07-23T23:42:26.349Z,4.50
2018-07-23T23:44:55.738Z,4.13
2018-07-23T23:47:25.220Z,4.20
2018-07-23T23:49:54.798Z,4.97
2018-07-23T23:52:24.164Z,4.63
2018-07-23T23:54:53.591Z,4.30
2018-07-23T23:57:23.075Z,4.30
2018-07-23T23:59:52.527Z,4.40
